sensor_id;sensor_type;location;lat;lon;timestamp;pressure;altitude;pressure_sealevel;temperature;humidity
10618;BME280;5356;43.526;26.534;2023-03-11T00:01:49;97308.84;;;13.72;100.00
10618;BME280;5356;43.526;26.534;2023-03-11T00:04:14;97300.75;;;13.77;100.00
10618;BME280;5356;43.526;26.534;2023-03-11T00:06:39;97290.63;;;13.74;100.00
10618;BME280;5356;43.526;26.534;2023-03-11T00:09:05;97303.53;;;13.66;100.00
10618;BME280;5356;43.526;26.534;2023-03-11T00:11:31;97290.75;;;13.63;100.00
10618;BME280;5356;43.526;26.534;2023-03-11T00:13:56;97288.59;;;13.65;100.00
10618;BME280;5356;43.526;26.534;2023-03-11T00:16:22;97271.16;;;13.68;100.00
10618;BME280;5356;43.526;26.534;2023-03-11T00:18:51;97263.88;;;13.74;100.00
10618;BME280;5356;43.526;26.534;2023-03-11T00:21:17;97249.84;;;13.82;100.00
10618;BME280;5356;43.526;26.534;2023-03-11T00:23:45;97242.88;;;13.81;100.00
10618;BME280;5356;43.526;26.534;2023-03-11T00:26:11;97250.47;;;13.92;100.00
10618;BME280;5356;43.526;26.534;2023-03-11T00:28:37;97241.81;;;14.01;100.00
10618;BME280;5356;43.526;26.534;2023-03-11T00:31:03;97253.16;;;14.11;100.00
10618;BME280;5356;43.526;26.534;2023-03-11T00:33:29;97254.47;;;14.14;100.00
10618;BME280;5356;43.526;26.534;2023-03-11T00:35:55;97244.22;;;14.02;100.00
10618;BME280;5356;43.526;26.534;2023-03-11T00:38:21;97249.69;;;13.92;100.00
10618;BME280;5356;43.526;26.534;2023-03-11T00:40:47;97237.03;;;13.98;100.00
10618;BME280;5356;43.526;26.534;2023-03-11T00:43:14;97230.88;;;13.97;100.00
10618;BME280;5356;43.526;26.534;2023-03-11T00:45:41;97231.03;;;13.87;100.00
10618;BME280;5356;43.526;26.534;2023-03-11T00:48:07;97226.69;;;13.91;100.00
10618;BME280;5356;43.526;26.534;2023-03-11T00:50:34;97228.53;;;13.96;100.00
10618;BME280;5356;43.526;26.534;2023-03-11T00:53:01;97231.47;;;13.94;100.00
10618;BME280;5356;43.526;26.534;2023-03-11T00:55:31;97232.47;;;13.98;100.00
10618;BME280;5356;43.526;26.534;2023-03-11T00:57:59;97228.19;;;13.78;100.00
10618;BME280;5356;43.526;26.534;2023-03-11T01:00:27;97220.91;;;13.65;100.00
10618;BME280;5356;43.526;26.534;2023-03-11T01:02:54;97211.84;;;13.61;100.00
10618;BME280;5356;43.526;26.534;2023-03-11T01:05:21;97219.16;;;13.55;100.00
10618;BME280;5356;43.526;26.534;2023-03-11T01:07:48;97217.09;;;13.47;100.00
10618;BME280;5356;43.526;26.534;2023-03-11T01:10:14;97211.19;;;13.50;100.00
10618;BME280;5356;43.526;26.534;2023-03-11T01:12:40;97198.84;;;13.54;100.00
10618;BME280;5356;43.526;26.534;2023-03-11T01:15:07;97200.78;;;13.48;100.00
10618;BME280;5356;43.526;26.534;2023-03-11T01:17:33;97200.06;;;13.43;100.00
10618;BME280;5356;43.526;26.534;2023-03-11T01:19:58;97193.56;;;13.49;100.00
10618;BME280;5356;43.526;26.534;2023-03-11T01:22:24;97186.09;;;13.46;100.00
10618;BME280;5356;43.526;26.534;2023-03-11T01:24:49;97181.47;;;13.52;100.00
10618;BME280;5356;43.526;26.534;2023-03-11T01:27:15;97176.94;;;13.52;100.00
10618;BME280;5356;43.526;26.534;2023-03-11T01:29:40;97178.38;;;13.63;100.00
10618;BME280;5356;43.526;26.534;2023-03-11T01:32:06;97171.44;;;13.62;100.00
10618;BME280;5356;43.526;26.534;2023-03-11T01:34:32;97177.66;;;13.77;100.00
10618;BME280;5356;43.526;26.534;2023-03-11T01:37:01;97170.34;;;13.82;100.00
10618;BME280;5356;43.526;26.534;2023-03-11T01:39:26;97166.72;;;13.92;100.00
10618;BME280;5356;43.526;26.534;2023-03-11T01:41:52;97153.91;;;13.89;100.00
10618;BME280;5356;43.526;26.534;2023-03-11T01:44:17;97144.25;;;13.93;100.00
10618;BME280;5356;43.526;26.534;2023-03-11T01:49:21;97141.38;;;13.70;100.00
10618;BME280;5356;43.526;26.534;2023-03-11T01:51:49;97131.38;;;13.76;100.00
10618;BME280;5356;43.526;26.534;2023-03-11T01:54:34;97128.56;;;13.67;100.00
10618;BME280;5356;43.526;26.534;2023-03-11T01:57:01;97117.88;;;13.48;100.00
10618;BME280;5356;43.526;26.534;2023-03-11T01:59:32;97120.09;;;13.41;100.00
10618;BME280;5356;43.526;26.534;2023-03-11T02:02:07;97109.50;;;13.36;100.00
10618;BME280;5356;43.526;26.534;2023-03-11T02:04:35;97113.38;;;13.44;100.00
10618;BME280;5356;43.526;26.534;2023-03-11T02:07:01;97112.97;;;13.37;100.00
10618;BME280;5356;43.526;26.534;2023-03-11T02:09:27;97106.19;;;13.20;100.00
10618;BME280;5356;43.526;26.534;2023-03-11T02:11:53;97105.47;;;13.15;100.00
10618;BME280;5356;43.526;26.534;2023-03-11T02:14:19;97112.13;;;13.17;100.00
10618;BME280;5356;43.526;26.534;2023-03-11T02:16:44;97108.13;;;13.15;100.00
10618;BME280;5356;43.526;26.534;2023-03-11T02:22:07;97112.13;;;13.17;100.00
10618;BME280;5356;43.526;26.534;2023-03-11T02:27:24;97111.81;;;13.19;100.00
10618;BME280;5356;43.526;26.534;2023-03-11T02:29:51;97102.16;;;13.23;100.00
10618;BME280;5356;43.526;26.534;2023-03-11T02:32:18;97109.56;;;13.31;100.00
10618;BME280;5356;43.526;26.534;2023-03-11T02:34:44;97105.84;;;13.27;100.00
10618;BME280;5356;43.526;26.534;2023-03-11T02:37:13;97115.06;;;13.40;100.00
10618;BME280;5356;43.526;26.534;2023-03-11T02:39:44;97114.41;;;13.48;100.00
10618;BME280;5356;43.526;26.534;2023-03-11T02:42:31;97111.28;;;13.60;100.00
10618;BME280;5356;43.526;26.534;2023-03-11T02:45:05;97109.41;;;13.60;100.00
10618;BME280;5356;43.526;26.534;2023-03-11T02:47:33;97110.06;;;13.52;100.00
10618;BME280;5356;43.526;26.534;2023-03-11T02:50:00;97100.78;;;13.63;100.00
10618;BME280;5356;43.526;26.534;2023-03-11T02:52:27;97094.22;;;13.56;100.00
10618;BME280;5356;43.526;26.534;2023-03-11T02:54:53;97095.03;;;13.56;100.00
10618;BME280;5356;43.526;26.534;2023-03-11T02:57:18;97093.88;;;13.62;100.00
10618;BME280;5356;43.526;26.534;2023-03-11T02:59:44;97096.94;;;13.69;100.00
10618;BME280;5356;43.526;26.534;2023-03-11T03:02:09;97089.59;;;13.61;100.00
10618;BME280;5356;43.526;26.534;2023-03-11T03:04:35;97083.94;;;13.63;100.00
10618;BME280;5356;43.526;26.534;2023-03-11T03:07:00;97079.91;;;13.65;100.00
10618;BME280;5356;43.526;26.534;2023-03-11T03:09:26;97084.53;;;13.79;100.00
10618;BME280;5356;43.526;26.534;2023-03-11T03:11:51;97083.03;;;13.86;100.00
10618;BME280;5356;43.526;26.534;2023-03-11T03:14:16;97072.19;;;13.97;100.00
10618;BME280;5356;43.526;26.534;2023-03-11T03:16:42;97072.56;;;14.04;100.00
10618;BME280;5356;43.526;26.534;2023-03-11T03:19:07;97071.69;;;14.08;100.00
10618;BME280;5356;43.526;26.534;2023-03-11T03:21:33;97077.06;;;14.08;100.00
10618;BME280;5356;43.526;26.534;2023-03-11T03:23:58;97062.88;;;14.08;100.00
10618;BME280;5356;43.526;26.534;2023-03-11T03:26:24;97056.63;;;14.12;100.00
10618;BME280;5356;43.526;26.534;2023-03-11T03:28:49;97061.19;;;14.12;100.00
10618;BME280;5356;43.526;26.534;2023-03-11T03:31:15;97058.81;;;14.10;100.00
10618;BME280;5356;43.526;26.534;2023-03-11T03:33:41;97060.47;;;14.06;100.00
10618;BME280;5356;43.526;26.534;2023-03-11T03:36:09;97052.19;;;14.08;100.00
10618;BME280;5356;43.526;26.534;2023-03-11T03:38:35;97054.66;;;14.04;100.00
10618;BME280;5356;43.526;26.534;2023-03-11T03:41:00;97050.28;;;14.08;100.00
10618;BME280;5356;43.526;26.534;2023-03-11T03:43:26;97042.13;;;14.00;100.00
10618;BME280;5356;43.526;26.534;2023-03-11T03:48:21;97038.16;;;13.97;100.00
10618;BME280;5356;43.526;26.534;2023-03-11T03:50:47;97034.50;;;13.93;100.00
10618;BME280;5356;43.526;26.534;2023-03-11T03:53:12;97032.69;;;13.88;100.00
10618;BME280;5356;43.526;26.534;2023-03-11T03:55:38;97025.06;;;13.82;100.00
10618;BME280;5356;43.526;26.534;2023-03-11T03:58:03;97021.38;;;13.78;100.00
10618;BME280;5356;43.526;26.534;2023-03-11T04:00:29;97019.88;;;13.72;100.00
10618;BME280;5356;43.526;26.534;2023-03-11T04:02:54;97016.69;;;13.69;100.00
10618;BME280;5356;43.526;26.534;2023-03-11T04:05:20;97014.31;;;13.68;100.00
10618;BME280;5356;43.526;26.534;2023-03-11T04:07:46;97010.34;;;13.65;100.00
10618;BME280;5356;43.526;26.534;2023-03-11T04:10:12;96999.66;;;13.65;100.00
10618;BME280;5356;43.526;26.534;2023-03-11T04:12:38;97003.97;;;13.61;100.00
10618;BME280;5356;43.526;26.534;2023-03-11T04:15:04;96986.34;;;13.60;100.00
10618;BME280;5356;43.526;26.534;2023-03-11T04:17:30;96982.28;;;13.63;100.00
10618;BME280;5356;43.526;26.534;2023-03-11T04:19:55;96986.19;;;13.70;100.00
10618;BME280;5356;43.526;26.534;2023-03-11T04:22:21;96982.50;;;13.66;100.00
10618;BME280;5356;43.526;26.534;2023-03-11T04:24:46;96981.53;;;13.76;100.00
10618;BME280;5356;43.526;26.534;2023-03-11T04:27:12;96996.69;;;13.81;100.00
10618;BME280;5356;43.526;26.534;2023-03-11T04:29:37;96995.59;;;13.68;100.00
10618;BME280;5356;43.526;26.534;2023-03-11T04:32:03;96995.78;;;13.72;100.00
10618;BME280;5356;43.526;26.534;2023-03-11T04:34:28;96993.03;;;13.77;100.00
10618;BME280;5356;43.526;26.534;2023-03-11T04:36:54;97000.34;;;13.71;100.00
10618;BME280;5356;43.526;26.534;2023-03-11T04:39:19;96997.38;;;13.73;100.00
10618;BME280;5356;43.526;26.534;2023-03-11T04:41:45;96991.53;;;13.70;100.00
10618;BME280;5356;43.526;26.534;2023-03-11T04:44:10;96987.94;;;13.61;100.00
10618;BME280;5356;43.526;26.534;2023-03-11T04:46:36;96987.53;;;13.54;100.00
10618;BME280;5356;43.526;26.534;2023-03-11T04:49:01;96993.75;;;13.50;100.00
10618;BME280;5356;43.526;26.534;2023-03-11T04:51:27;96990.88;;;13.46;100.00
10618;BME280;5356;43.526;26.534;2023-03-11T04:53:53;96980.03;;;13.37;100.00
10618;BME280;5356;43.526;26.534;2023-03-11T04:56:18;96987.19;;;13.42;100.00
10618;BME280;5356;43.526;26.534;2023-03-11T04:58:43;96978.66;;;13.40;100.00
10618;BME280;5356;43.526;26.534;2023-03-11T05:01:09;96979.84;;;13.34;100.00
10618;BME280;5356;43.526;26.534;2023-03-11T05:03:34;96980.63;;;13.34;100.00
10618;BME280;5356;43.526;26.534;2023-03-11T05:06:00;96982.91;;;13.41;100.00
10618;BME280;5356;43.526;26.534;2023-03-11T05:08:25;96977.69;;;13.50;100.00
10618;BME280;5356;43.526;26.534;2023-03-11T05:10:51;96979.56;;;13.49;100.00
10618;BME280;5356;43.526;26.534;2023-03-11T05:13:18;96983.13;;;13.44;100.00
10618;BME280;5356;43.526;26.534;2023-03-11T05:15:45;96988.69;;;13.48;100.00
10618;BME280;5356;43.526;26.534;2023-03-11T05:18:10;96986.34;;;13.60;100.00
10618;BME280;5356;43.526;26.534;2023-03-11T05:20:36;96988.34;;;13.68;100.00
10618;BME280;5356;43.526;26.534;2023-03-11T05:23:01;96987.38;;;13.78;100.00
10618;BME280;5356;43.526;26.534;2023-03-11T05:25:27;96990.88;;;13.79;100.00
10618;BME280;5356;43.526;26.534;2023-03-11T05:27:52;96992.13;;;13.81;100.00
10618;BME280;5356;43.526;26.534;2023-03-11T05:30:18;97000.31;;;13.90;100.00
10618;BME280;5356;43.526;26.534;2023-03-11T05:32:43;97004.63;;;13.86;100.00
10618;BME280;5356;43.526;26.534;2023-03-11T05:35:09;97003.16;;;13.80;100.00
10618;BME280;5356;43.526;26.534;2023-03-11T05:37:34;97000.78;;;13.92;100.00
10618;BME280;5356;43.526;26.534;2023-03-11T05:40:02;96995.53;;;14.01;100.00
10618;BME280;5356;43.526;26.534;2023-03-11T05:42:30;97001.72;;;14.01;100.00
10618;BME280;5356;43.526;26.534;2023-03-11T05:44:56;96993.56;;;14.06;100.00
10618;BME280;5356;43.526;26.534;2023-03-11T05:47:21;97004.09;;;14.17;100.00
10618;BME280;5356;43.526;26.534;2023-03-11T05:49:47;96994.28;;;14.26;100.00
10618;BME280;5356;43.526;26.534;2023-03-11T05:52:13;96995.38;;;14.38;100.00
10618;BME280;5356;43.526;26.534;2023-03-11T05:54:39;96997.97;;;14.44;100.00
10618;BME280;5356;43.526;26.534;2023-03-11T05:57:05;96994.38;;;14.48;100.00
10618;BME280;5356;43.526;26.534;2023-03-11T05:59:33;96990.63;;;14.49;100.00
10618;BME280;5356;43.526;26.534;2023-03-11T06:02:03;96995.59;;;14.56;100.00
10618;BME280;5356;43.526;26.534;2023-03-11T06:04:28;96987.72;;;14.59;100.00
10618;BME280;5356;43.526;26.534;2023-03-11T06:06:55;96994.78;;;14.69;100.00
10618;BME280;5356;43.526;26.534;2023-03-11T06:09:27;96996.19;;;14.67;100.00
10618;BME280;5356;43.526;26.534;2023-03-11T06:11:52;96996.19;;;14.67;100.00
10618;BME280;5356;43.526;26.534;2023-03-11T06:14:18;97011.84;;;14.59;100.00
10618;BME280;5356;43.526;26.534;2023-03-11T06:16:44;97016.59;;;14.49;100.00
10618;BME280;5356;43.526;26.534;2023-03-11T06:19:12;97019.50;;;14.52;100.00
10618;BME280;5356;43.526;26.534;2023-03-11T06:21:38;97015.63;;;14.58;100.00
10618;BME280;5356;43.526;26.534;2023-03-11T06:24:04;97020.50;;;14.56;100.00
10618;BME280;5356;43.526;26.534;2023-03-11T06:26:30;97031.81;;;14.53;100.00
10618;BME280;5356;43.526;26.534;2023-03-11T06:28:55;97046.16;;;14.44;100.00
10618;BME280;5356;43.526;26.534;2023-03-11T06:31:26;97050.72;;;14.43;100.00
10618;BME280;5356;43.526;26.534;2023-03-11T06:33:52;97056.66;;;14.40;100.00
10618;BME280;5356;43.526;26.534;2023-03-11T06:36:20;97051.63;;;14.38;100.00
10618;BME280;5356;43.526;26.534;2023-03-11T06:38:47;97067.97;;;14.37;100.00
10618;BME280;5356;43.526;26.534;2023-03-11T06:41:19;97064.22;;;14.38;100.00
10618;BME280;5356;43.526;26.534;2023-03-11T06:43:48;97069.00;;;14.41;100.00
10618;BME280;5356;43.526;26.534;2023-03-11T06:46:19;97076.91;;;14.46;100.00
10618;BME280;5356;43.526;26.534;2023-03-11T06:48:45;97072.63;;;14.31;100.00
10618;BME280;5356;43.526;26.534;2023-03-11T06:51:12;97073.31;;;14.23;100.00
10618;BME280;5356;43.526;26.534;2023-03-11T06:53:38;97083.13;;;14.14;100.00
10618;BME280;5356;43.526;26.534;2023-03-11T06:56:05;97079.84;;;14.17;100.00
10618;BME280;5356;43.526;26.534;2023-03-11T06:58:33;97089.78;;;14.17;100.00
10618;BME280;5356;43.526;26.534;2023-03-11T07:01:04;97091.78;;;14.25;100.00
10618;BME280;5356;43.526;26.534;2023-03-11T07:03:30;97097.31;;;14.28;100.00
10618;BME280;5356;43.526;26.534;2023-03-11T07:05:57;97103.28;;;14.25;100.00
10618;BME280;5356;43.526;26.534;2023-03-11T07:08:24;97106.81;;;14.21;100.00
10618;BME280;5356;43.526;26.534;2023-03-11T07:11:22;97126.22;;;14.12;100.00
10618;BME280;5356;43.526;26.534;2023-03-11T07:13:48;97117.88;;;14.00;100.00
10618;BME280;5356;43.526;26.534;2023-03-11T07:16:16;97124.41;;;13.94;100.00
10618;BME280;5356;43.526;26.534;2023-03-11T07:18:43;97119.91;;;13.89;100.00
10618;BME280;5356;43.526;26.534;2023-03-11T07:21:13;97120.22;;;13.88;100.00
10618;BME280;5356;43.526;26.534;2023-03-11T07:23:40;97122.97;;;13.83;100.00
10618;BME280;5356;43.526;26.534;2023-03-11T07:26:08;97131.72;;;13.69;100.00
10618;BME280;5356;43.526;26.534;2023-03-11T07:28:34;97133.41;;;13.65;100.00
10618;BME280;5356;43.526;26.534;2023-03-11T07:31:16;97124.34;;;13.61;100.00
10618;BME280;5356;43.526;26.534;2023-03-11T07:33:42;97119.44;;;13.68;100.00
10618;BME280;5356;43.526;26.534;2023-03-11T07:36:10;97117.94;;;13.62;100.00
10618;BME280;5356;43.526;26.534;2023-03-11T07:38:36;97107.66;;;13.69;100.00
10618;BME280;5356;43.526;26.534;2023-03-11T07:41:02;97111.03;;;13.75;100.00
10618;BME280;5356;43.526;26.534;2023-03-11T07:43:27;97109.59;;;13.83;100.00
10618;BME280;5356;43.526;26.534;2023-03-11T07:48:33;97096.94;;;13.88;100.00
10618;BME280;5356;43.526;26.534;2023-03-11T07:51:00;97093.59;;;13.97;100.00
10618;BME280;5356;43.526;26.534;2023-03-11T07:53:26;97091.75;;;14.11;100.00
10618;BME280;5356;43.526;26.534;2023-03-11T07:55:59;97092.97;;;14.19;100.00
10618;BME280;5356;43.526;26.534;2023-03-11T07:58:25;97088.00;;;14.26;100.00
10618;BME280;5356;43.526;26.534;2023-03-11T08:00:51;97082.63;;;14.26;100.00
10618;BME280;5356;43.526;26.534;2023-03-11T08:03:17;97081.66;;;14.22;100.00
10618;BME280;5356;43.526;26.534;2023-03-11T08:05:43;97068.25;;;14.22;100.00
10618;BME280;5356;43.526;26.534;2023-03-11T08:08:08;97060.94;;;14.27;100.00
10618;BME280;5356;43.526;26.534;2023-03-11T08:10:37;97066.69;;;14.34;100.00
10618;BME280;5356;43.526;26.534;2023-03-11T08:13:03;97067.59;;;14.44;100.00
10618;BME280;5356;43.526;26.534;2023-03-11T08:15:29;97069.59;;;14.38;100.00
10618;BME280;5356;43.526;26.534;2023-03-11T08:17:56;97066.91;;;14.38;100.00
10618;BME280;5356;43.526;26.534;2023-03-11T08:20:24;97061.13;;;14.45;100.00
10618;BME280;5356;43.526;26.534;2023-03-11T08:22:53;97049.53;;;14.49;100.00
10618;BME280;5356;43.526;26.534;2023-03-11T08:25:18;97051.22;;;14.45;100.00
10618;BME280;5356;43.526;26.534;2023-03-11T08:27:44;97061.03;;;14.36;100.00
10618;BME280;5356;43.526;26.534;2023-03-11T08:30:10;97052.78;;;14.46;100.00
10618;BME280;5356;43.526;26.534;2023-03-11T08:32:42;97053.75;;;14.55;100.00
10618;BME280;5356;43.526;26.534;2023-03-11T08:35:10;97047.47;;;14.74;100.00
10618;BME280;5356;43.526;26.534;2023-03-11T08:37:39;97050.34;;;14.77;100.00
10618;BME280;5356;43.526;26.534;2023-03-11T08:40:05;97050.13;;;14.88;100.00
10618;BME280;5356;43.526;26.534;2023-03-11T08:42:32;97042.84;;;15.02;100.00
10618;BME280;5356;43.526;26.534;2023-03-11T08:45:06;97042.34;;;15.14;100.00
10618;BME280;5356;43.526;26.534;2023-03-11T08:47:41;97037.84;;;15.23;100.00
10618;BME280;5356;43.526;26.534;2023-03-11T08:50:13;97038.22;;;15.30;100.00
10618;BME280;5356;43.526;26.534;2023-03-11T08:52:39;97048.22;;;15.38;100.00
10618;BME280;5356;43.526;26.534;2023-03-11T08:55:05;97052.75;;;15.29;100.00
10618;BME280;5356;43.526;26.534;2023-03-11T08:57:33;97045.97;;;15.32;100.00
10618;BME280;5356;43.526;26.534;2023-03-11T08:59:58;97039.56;;;15.41;100.00
10618;BME280;5356;43.526;26.534;2023-03-11T09:02:24;97046.97;;;15.58;100.00
10618;BME280;5356;43.526;26.534;2023-03-11T09:04:51;97046.00;;;15.54;100.00
10618;BME280;5356;43.526;26.534;2023-03-11T09:07:17;97048.38;;;15.56;100.00
10618;BME280;5356;43.526;26.534;2023-03-11T09:09:43;97031.59;;;15.50;100.00
10618;BME280;5356;43.526;26.534;2023-03-11T09:12:09;97036.03;;;15.68;100.00
10618;BME280;5356;43.526;26.534;2023-03-11T09:14:41;97034.00;;;15.74;100.00
10618;BME280;5356;43.526;26.534;2023-03-11T09:17:08;97023.28;;;15.74;100.00
10618;BME280;5356;43.526;26.534;2023-03-11T09:19:35;97020.44;;;15.79;100.00
10618;BME280;5356;43.526;26.534;2023-03-11T09:22:02;97023.00;;;15.84;100.00
10618;BME280;5356;43.526;26.534;2023-03-11T09:24:28;97023.59;;;16.04;100.00
10618;BME280;5356;43.526;26.534;2023-03-11T09:26:56;97016.50;;;16.08;100.00
10618;BME280;5356;43.526;26.534;2023-03-11T09:29:22;97000.59;;;16.20;100.00
10618;BME280;5356;43.526;26.534;2023-03-11T09:31:47;97006.28;;;16.27;100.00
10618;BME280;5356;43.526;26.534;2023-03-11T09:34:13;97022.03;;;16.43;100.00
10618;BME280;5356;43.526;26.534;2023-03-11T09:36:41;97018.84;;;16.41;100.00
10618;BME280;5356;43.526;26.534;2023-03-11T09:39:08;97006.28;;;16.27;100.00
10618;BME280;5356;43.526;26.534;2023-03-11T09:41:40;97008.44;;;16.48;100.00
10618;BME280;5356;43.526;26.534;2023-03-11T09:49:46;96995.22;;;16.69;100.00
10618;BME280;5356;43.526;26.534;2023-03-11T09:52:18;96999.78;;;16.68;100.00
10618;BME280;5356;43.526;26.534;2023-03-11T09:54:51;96991.94;;;16.89;100.00
10618;BME280;5356;43.526;26.534;2023-03-11T09:57:21;96999.22;;;16.89;100.00
10618;BME280;5356;43.526;26.534;2023-03-11T09:59:48;96985.94;;;16.92;98.55
10618;BME280;5356;43.526;26.534;2023-03-11T10:02:18;96982.94;;;16.94;98.36
10618;BME280;5356;43.526;26.534;2023-03-11T10:04:58;96988.19;;;16.99;96.38
10618;BME280;5356;43.526;26.534;2023-03-11T10:07:33;96981.81;;;16.95;95.90
10618;BME280;5356;43.526;26.534;2023-03-11T10:10:01;96973.47;;;17.05;94.13
10618;BME280;5356;43.526;26.534;2023-03-11T10:21:23;96974.72;;;17.34;90.57
10618;BME280;5356;43.526;26.534;2023-03-11T10:27:00;96971.03;;;17.64;89.80
10618;BME280;5356;43.526;26.534;2023-03-11T10:29:31;96964.50;;;17.74;90.68
10618;BME280;5356;43.526;26.534;2023-03-11T10:32:24;96970.72;;;17.57;88.21
10618;BME280;5356;43.526;26.534;2023-03-11T10:34:57;96954.38;;;17.71;89.25
10618;BME280;5356;43.526;26.534;2023-03-11T10:37:28;96954.53;;;17.83;88.48
10618;BME280;5356;43.526;26.534;2023-03-11T10:40:03;96959.78;;;17.62;86.78
10618;BME280;5356;43.526;26.534;2023-03-11T10:42:31;96946.34;;;17.54;88.00
10618;BME280;5356;43.526;26.534;2023-03-11T10:44:58;96943.34;;;17.55;88.93
10618;BME280;5356;43.526;26.534;2023-03-11T10:47:24;96955.06;;;17.42;88.67
10618;BME280;5356;43.526;26.534;2023-03-11T10:49:50;96950.19;;;17.18;87.69
10618;BME280;5356;43.526;26.534;2023-03-11T10:52:17;96944.19;;;17.03;87.80
10618;BME280;5356;43.526;26.534;2023-03-11T10:54:45;96945.13;;;16.81;89.98
10618;BME280;5356;43.526;26.534;2023-03-11T10:59:49;96930.53;;;16.65;90.88
10618;BME280;5356;43.526;26.534;2023-03-11T11:02:29;96937.63;;;16.61;91.21
10618;BME280;5356;43.526;26.534;2023-03-11T11:07:47;96930.44;;;16.30;93.43
10618;BME280;5356;43.526;26.534;2023-03-11T11:10:25;96920.22;;;16.41;94.08
10618;BME280;5356;43.526;26.534;2023-03-11T11:13:17;96916.44;;;16.51;94.78
10618;BME280;5356;43.526;26.534;2023-03-11T11:15:55;96927.47;;;16.41;94.85
10618;BME280;5356;43.526;26.534;2023-03-11T11:21:25;96927.28;;;16.20;94.00
10618;BME280;5356;43.526;26.534;2023-03-11T11:24:23;96924.09;;;16.09;95.49
10618;BME280;5356;43.526;26.534;2023-03-11T11:27:16;96922.09;;;16.32;95.98
10618;BME280;5356;43.526;26.534;2023-03-11T11:29:42;96919.91;;;16.43;95.06
10618;BME280;5356;43.526;26.534;2023-03-11T11:32:16;96905.06;;;16.54;94.02
10618;BME280;5356;43.526;26.534;2023-03-11T11:37:34;96903.66;;;16.74;92.03
10618;BME280;5356;43.526;26.534;2023-03-11T11:42:36;96909.81;;;16.74;91.91
10618;BME280;5356;43.526;26.534;2023-03-11T11:45:21;96910.78;;;16.78;90.50
10618;BME280;5356;43.526;26.534;2023-03-11T11:47:51;96907.91;;;16.66;88.68
10618;BME280;5356;43.526;26.534;2023-03-11T11:50:35;96903.16;;;16.63;87.73
10618;BME280;5356;43.526;26.534;2023-03-11T11:53:41;96911.38;;;16.67;88.29
10618;BME280;5356;43.526;26.534;2023-03-11T11:56:08;96909.53;;;16.93;87.20
10618;BME280;5356;43.526;26.534;2023-03-11T11:58:34;96896.56;;;17.21;86.83
10618;BME280;5356;43.526;26.534;2023-03-11T12:01:12;96909.94;;;17.47;86.78
10618;BME280;5356;43.526;26.534;2023-03-11T12:17:08;96918.69;;;17.01;83.72
10618;BME280;5356;43.526;26.534;2023-03-11T12:19:52;96922.81;;;16.90;83.88
10618;BME280;5356;43.526;26.534;2023-03-11T12:27:46;96934.81;;;16.75;86.95
10618;BME280;5356;43.526;26.534;2023-03-11T12:30:20;96937.63;;;16.70;87.88
10618;BME280;5356;43.526;26.534;2023-03-11T12:33:00;96934.50;;;16.59;88.29
10618;BME280;5356;43.526;26.534;2023-03-11T12:35:28;96934.94;;;16.61;88.22
10618;BME280;5356;43.526;26.534;2023-03-11T12:37:57;96945.38;;;16.54;87.97
10618;BME280;5356;43.526;26.534;2023-03-11T12:40:46;96941.84;;;16.36;87.86
10618;BME280;5356;43.526;26.534;2023-03-11T12:45:58;96945.34;;;16.36;89.07
10618;BME280;5356;43.526;26.534;2023-03-11T12:50:50;96952.28;;;16.29;88.55
10618;BME280;5356;43.526;26.534;2023-03-11T12:53:16;96945.75;;;16.21;88.20
10618;BME280;5356;43.526;26.534;2023-03-11T12:55:58;96941.00;;;16.18;88.05
10618;BME280;5356;43.526;26.534;2023-03-11T12:58:59;96946.72;;;16.16;88.08
10618;BME280;5356;43.526;26.534;2023-03-11T13:01:43;96944.69;;;16.22;88.29
10618;BME280;5356;43.526;26.534;2023-03-11T13:04:24;96941.50;;;16.20;87.52
10618;BME280;5356;43.526;26.534;2023-03-11T13:07:04;96937.06;;;16.24;86.92
10618;BME280;5356;43.526;26.534;2023-03-11T13:09:36;96940.25;;;16.26;86.89
10618;BME280;5356;43.526;26.534;2023-03-11T13:12:02;96935.19;;;16.25;86.15
10618;BME280;5356;43.526;26.534;2023-03-11T13:14:34;96929.00;;;16.24;86.88
10618;BME280;5356;43.526;26.534;2023-03-11T13:17:25;96927.94;;;16.34;85.87
10618;BME280;5356;43.526;26.534;2023-03-11T13:19:56;96930.31;;;16.35;85.26
10618;BME280;5356;43.526;26.534;2023-03-11T13:25:36;96931.44;;;16.43;84.02
10618;BME280;5356;43.526;26.534;2023-03-11T13:33:47;96921.56;;;17.04;82.14
10618;BME280;5356;43.526;26.534;2023-03-11T13:41:47;96924.34;;;17.51;75.88
10618;BME280;5356;43.526;26.534;2023-03-11T13:44:34;96921.19;;;17.41;76.83
10618;BME280;5356;43.526;26.534;2023-03-11T13:47:21;96908.69;;;17.36;76.91
10618;BME280;5356;43.526;26.534;2023-03-11T13:50:11;96918.44;;;17.67;75.84
10618;BME280;5356;43.526;26.534;2023-03-11T13:52:45;96904.41;;;18.00;75.24
10618;BME280;5356;43.526;26.534;2023-03-11T13:55:26;96902.88;;;18.20;75.16
10618;BME280;5356;43.526;26.534;2023-03-11T13:57:55;96905.44;;;18.46;74.94
10618;BME280;5356;43.526;26.534;2023-03-11T14:00:23;96900.00;;;18.25;74.65
10618;BME280;5356;43.526;26.534;2023-03-11T14:02:52;96903.22;;;18.39;74.44
10618;BME280;5356;43.526;26.534;2023-03-11T14:05:29;96904.91;;;18.52;74.51
10618;BME280;5356;43.526;26.534;2023-03-11T14:13:45;96921.59;;;18.46;64.11
10618;BME280;5356;43.526;26.534;2023-03-11T14:16:22;96911.44;;;18.22;62.04
10618;BME280;5356;43.526;26.534;2023-03-11T14:19:12;96909.94;;;18.33;61.88
10618;BME280;5356;43.526;26.534;2023-03-11T14:21:41;96921.63;;;18.37;64.18
10618;BME280;5356;43.526;26.534;2023-03-11T14:24:35;96925.75;;;18.43;65.62
10618;BME280;5356;43.526;26.534;2023-03-11T14:27:02;96921.00;;;18.10;68.20
10618;BME280;5356;43.526;26.534;2023-03-11T14:29:37;96924.72;;;17.88;69.04
10618;BME280;5356;43.526;26.534;2023-03-11T14:34:51;96909.44;;;18.10;69.57